Time;durP1;ratioP1;P1;durP2;ratioP2;P2;SDS_P1;SDS_P2;PMS_P1;PMS_P2;Temp;Humidity;BMP_temperature;BMP_pressure;BME280_temperature;BME280_humidity;BME280_pressure;Samples;Min_cycle;Max_cycle;Signal;HPM_P1;HPM_P2
2023/01/15 00:01:03;;;;;;;0.25;0.10;;;11.50;99.90;;;;;;5077920;28;20480;-71
2023/01/15 00:03:29;;;;;;;0.20;0.20;;;11.50;99.90;;;;;;5095683;28;20036;-72
2023/01/15 00:05:56;;;;;;;0.60;0.05;;;11.50;99.90;;;;;;5095941;28;20373;-71
2023/01/15 00:08:21;;;;;;;0.38;0.10;;;11.50;99.90;;;;;;5095465;28;20365;-72
2023/01/15 00:10:47;;;;;;;0.38;0.20;;;11.50;99.90;;;;;;5095426;28;20030;-71
2023/01/15 00:13:13;;;;;;;0.63;0.30;;;11.50;99.90;;;;;;5095562;28;20042;-71
2023/01/15 00:15:38;;;;;;;0.70;0.20;;;11.50;99.90;;;;;;5076469;28;20031;-71
2023/01/15 00:18:04;;;;;;;0.47;0.20;;;11.50;99.90;;;;;;5076965;28;20044;-71
2023/01/15 00:20:29;;;;;;;0.55;0.30;;;11.60;99.90;;;;;;5076538;28;20059;-72
2023/01/15 00:22:55;;;;;;;0.35;0.15;;;11.60;99.90;;;;;;5077384;28;20028;-71
2023/01/15 00:28:19;;;;;;;0.15;0.10;;;11.60;99.90;;;;;;5060732;28;20040;-74
2023/01/15 00:30:45;;;;;;;0.25;0.10;;;11.60;99.90;;;;;;5076451;28;20497;-72
2023/01/15 00:33:10;;;;;;;0.57;0.20;;;11.70;99.90;;;;;;5077227;28;20043;-71
2023/01/15 00:35:36;;;;;;;0.93;0.20;;;11.70;99.90;;;;;;5094612;28;20032;-71
2023/01/15 00:38:02;;;;;;;1.38;0.28;;;11.70;99.90;;;;;;5095258;28;20028;-71
2023/01/15 00:40:27;;;;;;;0.25;0.10;;;11.70;99.90;;;;;;5076292;28;20469;-71
2023/01/15 00:42:53;;;;;;;0.52;0.20;;;11.70;99.90;;;;;;5076867;28;20080;-71
2023/01/15 00:45:18;;;;;;;0.17;0.10;;;11.70;99.90;;;;;;5094819;28;20028;-71
2023/01/15 00:47:46;;;;;;;0.45;0.10;;;11.70;99.90;;;;;;5094312;28;20069;-71
2023/01/15 00:50:14;;;;;;;0.10;0.10;;;11.70;99.90;;;;;;5076736;28;20047;-71
2023/01/15 00:52:40;;;;;;;0.00;0.00;;;11.70;99.90;;;;;;5075879;28;20453;-71
2023/01/15 00:55:07;;;;;;;0.30;0.20;;;11.70;99.90;;;;;;5076710;28;20119;-71
2023/01/15 00:57:33;;;;;;;1.40;0.30;;;11.80;99.90;;;;;;5075724;28;20028;-72
2023/01/15 00:59:58;;;;;;;0.40;0.10;;;11.70;99.90;;;;;;5095022;28;20043;-71
2023/01/15 01:02:24;;;;;;;0.80;0.20;;;11.70;99.90;;;;;;5076294;28;20027;-74
2023/01/15 01:04:49;;;;;;;0.45;0.20;;;11.60;99.90;;;;;;5075921;28;20481;-72
2023/01/15 01:07:15;;;;;;;0.77;0.30;;;11.60;99.90;;;;;;5076599;28;20032;-71
2023/01/15 01:09:41;;;;;;;0.35;0.20;;;11.50;99.90;;;;;;5075809;28;20028;-71
2023/01/15 01:12:07;;;;;;;0.52;0.20;;;11.50;99.90;;;;;;5094490;28;20043;-71
2023/01/15 01:14:32;;;;;;;0.60;0.40;;;11.40;99.90;;;;;;5093666;28;20020;-72
2023/01/15 01:16:58;;;;;;;0.55;0.25;;;11.40;99.90;;;;;;5076288;28;20395;-71
2023/01/15 01:19:25;;;;;;;0.30;0.10;;;11.40;99.90;;;;;;5075726;28;20091;-74
2023/01/15 01:21:51;;;;;;;1.30;0.10;;;11.40;99.90;;;;;;5094176;28;20028;-71
2023/01/15 01:24:22;;;;;;;1.17;0.10;;;11.40;99.90;;;;;;5076244;28;20047;-71
2023/01/15 01:26:49;;;;;;;0.47;0.10;;;11.40;99.90;;;;;;5093658;28;20028;-71
2023/01/15 01:29:17;;;;;;;0.60;0.10;;;11.40;99.90;;;;;;5076200;28;20108;-71
2023/01/15 01:31:43;;;;;;;0.17;0.10;;;11.30;99.90;;;;;;5093324;28;20551;-71
2023/01/15 01:34:09;;;;;;;0.20;0.10;;;11.30;99.90;;;;;;5059265;28;20052;-71
2023/01/15 01:36:37;;;;;;;0.75;0.20;;;11.30;99.90;;;;;;5075278;28;20030;-71
2023/01/15 01:39:04;;;;;;;0.20;0.13;;;11.30;99.90;;;;;;5075875;28;20118;-71
2023/01/15 01:41:31;;;;;;;0.47;0.10;;;11.30;99.90;;;;;;5093104;28;20027;-72
2023/01/15 01:44:17;;;;;;;0.10;0.08;;;11.30;99.90;;;;;;5075742;28;20069;-71
2023/01/15 01:46:43;;;;;;;2.30;0.17;;;11.20;99.90;;;;;;5074974;28;20028;-71
2023/01/15 01:49:11;;;;;;;0.60;0.10;;;11.30;99.90;;;;;;5093787;28;20137;-71
2023/01/15 01:51:44;;;;;;;2.83;0.17;;;11.30;99.90;;;;;;5074924;28;20020;-71
2023/01/15 01:54:13;;;;;;;0.22;0.10;;;11.30;99.90;;;;;;5075555;28;20035;-71
2023/01/15 01:56:38;;;;;;;0.50;0.10;;;11.30;99.90;;;;;;5074657;28;20487;-71
2023/01/15 01:59:05;;;;;;;0.63;0.10;;;11.30;99.90;;;;;;5093309;28;20115;-71
2023/01/15 02:01:31;;;;;;;1.15;0.10;;;11.30;99.90;;;;;;5092547;28;20065;-72
2023/01/15 02:03:57;;;;;;;0.50;0.20;;;11.30;99.90;;;;;;5075564;28;20373;-71
2023/01/15 02:06:25;;;;;;;1.52;0.03;;;11.30;99.90;;;;;;5075226;28;20476;-71
2023/01/15 02:08:51;;;;;;;0.40;0.10;;;11.30;99.90;;;;;;5074854;28;20020;-71
2023/01/15 02:11:21;;;;;;;0.52;0.10;;;11.40;99.90;;;;;;5093704;28;20506;-72
2023/01/15 02:13:57;;;;;;;0.52;0.00;;;11.50;99.90;;;;;;5074611;28;20040;-71
2023/01/15 02:16:34;;;;;;;0.40;0.10;;;11.40;99.90;;;;;;5074637;28;20024;-71
2023/01/15 02:19:28;;;;;;;0.15;0.10;;;11.40;99.90;;;;;;5075253;28;20052;-71
2023/01/15 02:22:10;;;;;;;0.60;0.15;;;11.50;99.90;;;;;;5075343;28;20484;-71
2023/01/15 02:24:41;;;;;;;0.50;0.30;;;11.50;99.90;;;;;;5092583;28;20017;-72
2023/01/15 02:27:26;;;;;;;0.00;0.00;;;11.40;99.90;;;;;;5074613;28;20068;-71
2023/01/15 02:30:05;;;;;;;0.20;0.10;;;11.50;99.90;;;;;;5092608;28;20032;-71
2023/01/15 02:32:42;;;;;;;0.35;0.10;;;11.50;99.90;;;;;;5092320;28;20032;-71
2023/01/15 02:35:20;;;;;;;0.35;0.10;;;11.50;99.90;;;;;;5074774;28;20084;-71
2023/01/15 02:37:52;;;;;;;0.47;0.00;;;11.50;99.90;;;;;;5074154;28;20032;-71
2023/01/15 02:40:21;;;;;;;1.83;0.10;;;11.50;99.90;;;;;;5074774;28;20031;-71
2023/01/15 02:42:48;;;;;;;0.10;0.10;;;11.40;99.90;;;;;;5073923;28;20127;-71
2023/01/15 02:45:22;;;;;;;0.20;0.10;;;11.50;99.90;;;;;;5092790;28;20031;-71
2023/01/15 02:47:50;;;;;;;0.10;0.03;;;11.40;99.90;;;;;;5073623;28;20020;-71
2023/01/15 02:50:21;;;;;;;0.22;0.10;;;11.40;99.90;;;;;;5074477;28;20177;-72
2023/01/15 02:52:53;;;;;;;0.10;0.10;;;11.40;99.90;;;;;;5091938;28;20036;-71
2023/01/15 02:55:21;;;;;;;;;;;11.50;99.90;;;;;;5074869;28;20042;-71
2023/01/15 02:57:48;;;;;;;1.10;0.00;;;11.50;99.90;;;;;;5091855;28;19918;-71
2023/01/15 03:00:18;;;;;;;0.10;0.10;;;11.50;99.90;;;;;;5074380;28;20435;-71
2023/01/15 03:02:48;;;;;;;0.10;0.10;;;11.50;99.90;;;;;;5073786;28;20423;-71
2023/01/15 03:05:22;;;;;;;0.82;0.10;;;11.50;99.90;;;;;;5074477;28;20381;-71
2023/01/15 03:07:54;;;;;;;1.02;0.05;;;11.60;99.90;;;;;;5091817;28;20028;-71
2023/01/15 03:10:42;;;;;;;0.10;0.00;;;11.60;99.90;;;;;;5092166;28;20035;-71
2023/01/15 03:13:15;;;;;;;0.15;0.10;;;11.70;99.90;;;;;;5092458;28;20032;-71
2023/01/15 03:18:34;;;;;;;0.10;0.00;;;11.70;99.90;;;;;;5092375;28;20170;-71
2023/01/15 03:21:07;;;;;;;0.10;0.05;;;11.80;99.90;;;;;;5074464;28;20024;-71
2023/01/15 03:23:37;;;;;;;0.43;0.10;;;11.80;99.90;;;;;;5081336;28;20119;-73
2023/01/15 03:26:03;;;;;;;0.22;0.10;;;11.80;99.90;;;;;;5094319;28;20034;-71
2023/01/15 03:28:32;;;;;;;0.10;0.00;;;11.80;99.90;;;;;;5097703;28;20035;-70
2023/01/15 03:30:58;;;;;;;0.03;0.03;;;11.80;99.90;;;;;;5116681;28;20551;-71
2023/01/15 03:33:25;;;;;;;0.32;0.10;;;11.80;99.90;;;;;;5098492;28;20036;-71
2023/01/15 03:35:52;;;;;;;1.00;0.10;;;11.90;99.90;;;;;;5115998;28;20349;-71
2023/01/15 03:38:21;;;;;;;1.30;0.30;;;11.90;99.90;;;;;;5098451;28;20177;-71
2023/01/15 03:41:03;;;;;;;0.60;0.20;;;11.90;99.90;;;;;;5097527;28;20046;-71
2023/01/15 03:43:52;;;;;;;3.72;0.30;;;11.80;99.90;;;;;;5098455;28;20107;-70
2023/01/15 03:46:36;;;;;;;0.70;0.20;;;11.70;99.90;;;;;;5098574;28;20392;-71
2023/01/15 03:49:24;;;;;;;0.30;0.20;;;11.50;99.90;;;;;;5116651;28;20027;-71
2023/01/15 03:52:00;;;;;;;1.50;0.08;;;11.30;99.90;;;;;;5099695;28;20073;-71
2023/01/15 03:54:33;;;;;;;0.10;0.00;;;11.10;99.90;;;;;;5098439;28;20031;-71
2023/01/15 03:57:12;;;;;;;0.60;0.15;;;10.90;99.90;;;;;;5097799;28;20112;-71
2023/01/15 03:59:45;;;;;;;0.25;0.00;;;10.80;99.90;;;;;;5097497;28;20028;-72
2023/01/15 04:02:12;;;;;;;0.50;0.15;;;10.70;99.90;;;;;;5098319;28;20027;-71
2023/01/15 04:04:39;;;;;;;1.42;0.10;;;10.70;99.90;;;;;;5097354;28;20023;-71
2023/01/15 04:07:05;;;;;;;0.32;0.10;;;10.70;99.90;;;;;;5116362;28;20023;-71
2023/01/15 04:09:35;;;;;;;0.43;0.10;;;10.60;99.90;;;;;;5097997;28;20027;-71
2023/01/15 04:12:01;;;;;;;0.80;0.10;;;10.60;99.90;;;;;;5097885;28;20538;-71
2023/01/15 04:14:29;;;;;;;0.63;0.10;;;10.50;99.90;;;;;;5116071;28;20027;-71
2023/01/15 04:16:55;;;;;;;0.20;0.10;;;10.40;99.90;;;;;;5096946;28;20019;-71
2023/01/15 04:19:20;;;;;;;0.20;0.10;;;10.30;99.90;;;;;;5097678;28;20436;-71
2023/01/15 04:21:46;;;;;;;0.45;0.10;;;10.20;99.90;;;;;;5096858;28;20542;-71
2023/01/15 04:24:12;;;;;;;0.57;0.20;;;10.10;99.90;;;;;;5097809;28;20051;-71
2023/01/15 04:26:37;;;;;;;0.60;0.20;;;10.10;99.90;;;;;;5114943;28;20377;-73
2023/01/15 04:29:03;;;;;;;0.65;0.20;;;10.10;99.90;;;;;;5097870;28;20118;-71
2023/01/15 04:31:31;;;;;;;0.77;0.20;;;10.10;99.90;;;;;;5097206;28;20501;-71
2023/01/15 04:33:56;;;;;;;1.50;0.17;;;10.00;99.90;;;;;;5115090;28;20023;-71
2023/01/15 04:36:22;;;;;;;0.80;0.20;;;9.90;99.90;;;;;;5115656;28;20111;-71
2023/01/15 04:38:47;;;;;;;0.30;0.00;;;9.90;99.90;;;;;;5095818;28;20024;-72
2023/01/15 04:44:06;;;;;;;0.10;0.00;;;9.70;99.90;;;;;;5114758;28;20530;-71
2023/01/15 04:46:38;;;;;;;1.10;0.00;;;9.70;99.90;;;;;;5115518;28;20024;-71
2023/01/15 04:49:05;;;;;;;0.40;0.15;;;9.60;99.90;;;;;;5097181;28;20414;-71
2023/01/15 04:51:31;;;;;;;1.02;0.52;;;9.60;99.90;;;;;;5115341;28;20035;-71
2023/01/15 04:53:56;;;;;;;0.10;0.10;;;9.60;99.90;;;;;;5114595;28;20028;-72
2023/01/15 04:56:22;;;;;;;0.10;0.00;;;9.50;99.90;;;;;;5115117;28;20384;-71
2023/01/15 04:58:48;;;;;;;0.60;0.13;;;9.40;99.90;;;;;;5114753;28;20099;-71
2023/01/15 05:01:15;;;;;;;0.20;0.10;;;9.30;99.90;;;;;;5096892;28;20473;-71
2023/01/15 05:03:41;;;;;;;0.47;0.20;;;9.30;99.90;;;;;;5096212;28;20034;-72
2023/01/15 05:06:08;;;;;;;0.03;0.00;;;9.30;99.90;;;;;;5090657;28;20030;-72
2023/01/15 05:08:34;;;;;;;0.10;0.10;;;9.20;99.90;;;;;;5096228;28;20020;-71
2023/01/15 05:11:05;;;;;;;0.00;0.00;;;9.20;99.90;;;;;;5094751;28;20088;-71
2023/01/15 05:13:32;;;;;;;0.08;0.00;;;9.10;99.90;;;;;;5095527;28;20096;-72
2023/01/15 05:16:16;;;;;;;0.10;0.03;;;9.10;99.90;;;;;;5095653;28;20031;-71
2023/01/15 05:18:43;;;;;;;0.25;0.00;;;9.10;99.90;;;;;;5105982;28;20107;-71
2023/01/15 05:21:24;;;;;;;0.20;0.03;;;9.10;99.90;;;;;;5113806;28;20099;-71
2023/01/15 05:23:52;;;;;;;0.00;0.00;;;9.10;99.90;;;;;;5103405;28;20087;-71
2023/01/15 05:26:19;;;;;;;0.85;0.00;;;9.00;99.90;;;;;;5096055;28;20476;-71
2023/01/15 05:28:44;;;;;;;0.00;0.00;;;9.00;99.90;;;;;;5094829;28;20480;-72
2023/01/15 05:31:16;;;;;;;0.00;0.00;;;9.00;99.90;;;;;;5109497;28;20028;-72
2023/01/15 05:33:43;;;;;;;0.10;0.00;;;9.00;99.90;;;;;;5102992;28;20031;-72
2023/01/15 05:36:13;;;;;;;0.30;0.00;;;8.90;99.90;;;;;;5090354;28;20032;-71
2023/01/15 05:38:40;;;;;;;0.10;0.00;;;9.00;99.90;;;;;;5110048;28;20031;-73
2023/01/15 05:44:00;;;;;;;0.00;0.00;;;8.90;99.90;;;;;;5113236;28;20062;-72
2023/01/15 05:46:25;;;;;;;0.65;0.00;;;8.80;99.90;;;;;;5098720;28;20032;-72
2023/01/15 05:48:51;;;;;;;0.00;0.00;;;8.70;99.90;;;;;;5111123;28;20026;-72
2023/01/15 05:51:17;;;;;;;0.00;0.00;;;8.70;99.90;;;;;;5113720;28;20031;-72
2023/01/15 05:53:43;;;;;;;0.05;0.00;;;8.60;99.90;;;;;;5113033;28;20035;-72
2023/01/15 05:56:09;;;;;;;0.80;0.00;;;8.50;99.90;;;;;;5106763;28;20033;-72
2023/01/15 05:58:34;;;;;;;0.10;0.00;;;8.40;99.90;;;;;;5113532;28;20103;-72
2023/01/15 06:01:04;;;;;;;0.60;0.00;;;8.30;99.90;;;;;;5105486;28;20069;-72
2023/01/15 06:03:30;;;;;;;0.00;0.00;;;8.30;99.90;;;;;;5105856;28;20396;-72
2023/01/15 06:05:55;;;;;;;0.45;0.00;;;8.30;99.90;;;;;;5093329;28;20023;-71
2023/01/15 06:08:22;;;;;;;0.00;0.00;;;8.30;99.90;;;;;;5095155;28;20020;-71
2023/01/15 06:10:49;;;;;;;0.10;0.00;;;8.20;99.90;;;;;;5092560;28;20036;-72
2023/01/15 06:13:15;;;;;;;0.10;0.00;;;8.20;99.90;;;;;;5086000;28;20059;-71
2023/01/15 06:15:42;;;;;;;0.00;0.00;;;8.20;99.90;;;;;;5113081;27;20038;-72
2023/01/15 06:18:08;;;;;;;0.05;0.00;;;8.20;99.90;;;;;;5106190;28;20054;-72
2023/01/15 06:20:38;;;;;;;0.00;0.00;;;8.20;99.90;;;;;;5096512;28;20028;-72
2023/01/15 06:23:04;;;;;;;0.43;0.10;;;8.10;99.90;;;;;;5109033;28;20523;-72
2023/01/15 06:25:35;;;;;;;0.00;0.00;;;8.00;99.90;;;;;;5101174;28;20047;-71
2023/01/15 06:28:04;;;;;;;0.73;0.20;;;8.00;99.90;;;;;;5100488;28;20038;-72
2023/01/15 06:30:30;;;;;;;1.30;0.30;;;8.00;99.90;;;;;;5094737;28;20271;-72
2023/01/15 06:32:55;;;;;;;3.17;0.10;;;8.00;99.90;;;;;;5112320;28;20031;-72
2023/01/15 06:35:21;;;;;;;0.20;0.10;;;7.90;99.90;;;;;;5108479;28;20024;-71
2023/01/15 06:37:49;;;;;;;0.38;0.30;;;8.00;99.90;;;;;;5073544;28;20093;-71
2023/01/15 06:40:15;;;;;;;0.70;0.30;;;7.90;99.90;;;;;;5102387;28;20068;-71
2023/01/15 06:48:13;;;;;;;0.20;0.10;;;7.90;99.90;;;;;;5087661;28;20121;-71
2023/01/15 06:50:38;;;;;;;0.20;0.08;;;7.90;99.90;;;;;;5095175;28;20027;-73
2023/01/15 06:53:04;;;;;;;0.25;0.10;;;7.90;99.90;;;;;;5108313;28;20432;-70
2023/01/15 06:55:29;;;;;;;0.00;0.00;;;7.90;99.90;;;;;;5100352;28;20024;-71
2023/01/15 06:57:55;;;;;;;0.00;0.00;;;7.80;99.90;;;;;;5100850;28;20020;-71
2023/01/15 07:00:21;;;;;;;0.10;0.00;;;7.70;99.90;;;;;;5112663;28;20036;-71
2023/01/15 07:02:46;;;;;;;0.00;0.00;;;7.80;99.90;;;;;;5111255;28;20027;-71
2023/01/15 07:05:12;;;;;;;0.10;0.00;;;7.80;99.90;;;;;;5109345;28;20020;-71
2023/01/15 07:07:37;;;;;;;0.63;0.00;;;7.70;99.90;;;;;;5102522;28;20028;-71
2023/01/15 07:10:03;;;;;;;0.10;0.00;;;7.70;99.90;;;;;;5099842;28;20024;-71
2023/01/15 07:12:29;;;;;;;0.00;0.00;;;7.70;99.90;;;;;;5112149;28;20066;-71
2023/01/15 07:14:54;;;;;;;0.00;0.00;;;7.70;99.90;;;;;;5111872;28;20024;-71
2023/01/15 07:17:20;;;;;;;0.08;0.00;;;7.70;99.90;;;;;;5105992;28;20106;-71
2023/01/15 07:19:46;;;;;;;0.15;0.10;;;7.70;99.90;;;;;;5111319;28;20027;-72
2023/01/15 07:22:12;;;;;;;0.70;0.20;;;7.70;99.90;;;;;;5112285;28;20027;-71
2023/01/15 07:24:38;;;;;;;0.63;0.20;;;7.60;99.90;;;;;;5094012;28;20034;-72
2023/01/15 07:27:04;;;;;;;0.50;0.10;;;7.60;99.90;;;;;;5093938;28;20119;-71
2023/01/15 07:29:30;;;;;;;0.25;0.20;;;7.60;99.90;;;;;;5112466;28;20032;-71
2023/01/15 07:31:55;;;;;;;0.68;0.25;;;7.60;99.90;;;;;;5111556;28;20024;-71
2023/01/15 07:34:21;;;;;;;0.00;0.00;;;7.60;99.90;;;;;;5112262;28;20093;-71
2023/01/15 07:36:47;;;;;;;0.13;0.00;;;7.50;99.90;;;;;;5111036;28;20499;-71
2023/01/15 07:39:12;;;;;;;0.30;0.03;;;7.50;99.90;;;;;;5093830;28;20028;-71
2023/01/15 07:50:22;;;;;;;0.60;0.10;;;7.50;99.90;;;;;;5009340;28;20108;-71
2023/01/15 07:52:48;;;;;;;0.93;0.20;;;7.50;99.90;;;;;;5057159;28;20040;-71
2023/01/15 07:55:14;;;;;;;1.50;0.17;;;7.50;99.90;;;;;;5090527;28;20457;-71
2023/01/15 07:57:41;;;;;;;0.43;0.10;;;7.50;99.90;;;;;;5093399;28;20040;-73
2023/01/15 08:00:10;;;;;;;0.30;0.10;;;7.50;99.90;;;;;;5093374;28;20020;-71
2023/01/15 08:02:35;;;;;;;0.38;0.10;;;7.40;99.90;;;;;;5093835;28;20034;-71
2023/01/15 08:05:01;;;;;;;0.50;0.10;;;7.40;99.90;;;;;;5111210;28;20027;-71
2023/01/15 08:07:27;;;;;;;1.65;0.20;;;7.40;99.90;;;;;;5093731;28;20163;-71
2023/01/15 08:09:52;;;;;;;1.47;0.20;;;7.40;99.90;;;;;;5110916;28;20027;-71
2023/01/15 08:15:15;;;;;;;0.50;0.10;;;7.40;99.90;;;;;;5093376;28;20548;-71
2023/01/15 08:17:43;;;;;;;0.98;0.10;;;7.40;99.90;;;;;;5073439;28;20090;-73
2023/01/15 08:20:13;;;;;;;0.10;0.00;;;7.30;99.90;;;;;;5088518;28;20173;-71
2023/01/15 08:22:39;;;;;;;0.08;0.08;;;7.30;99.90;;;;;;5095100;28;20050;-71
2023/01/15 08:25:07;;;;;;;0.10;0.03;;;7.30;99.90;;;;;;5093053;28;20435;-71
2023/01/15 08:27:32;;;;;;;1.27;0.50;;;7.20;99.90;;;;;;5093723;28;20028;-71
2023/01/15 08:29:58;;;;;;;0.20;0.10;;;7.30;99.90;;;;;;5092911;28;20039;-71
2023/01/15 08:32:24;;;;;;;0.35;0.00;;;7.20;99.90;;;;;;5093228;28;20452;-72
2023/01/15 08:34:49;;;;;;;0.40;0.17;;;7.20;99.90;;;;;;5092723;28;20020;-71
2023/01/15 08:37:15;;;;;;;0.60;0.00;;;7.20;99.90;;;;;;5094518;28;20024;-70
2023/01/15 08:39:41;;;;;;;0.22;0.10;;;7.10;99.90;;;;;;5093147;28;20575;-74
2023/01/15 08:42:07;;;;;;;0.10;0.00;;;7.10;99.90;;;;;;5093101;28;20024;-71
2023/01/15 08:44:33;;;;;;;0.17;0.13;;;7.00;99.90;;;;;;5093282;28;20100;-71
2023/01/15 08:46:58;;;;;;;0.57;0.10;;;7.00;99.90;;;;;;5092476;28;20055;-72
2023/01/15 08:49:24;;;;;;;1.52;0.10;;;6.90;99.90;;;;;;5094528;28;20028;-72
2023/01/15 08:51:50;;;;;;;0.20;0.10;;;6.90;99.90;;;;;;5092679;28;20032;-72
2023/01/15 08:54:18;;;;;;;1.63;0.20;;;6.90;99.90;;;;;;5093321;28;20393;-71
2023/01/15 08:56:45;;;;;;;0.30;0.10;;;6.90;99.90;;;;;;5094122;28;20032;-74
2023/01/15 08:59:10;;;;;;;0.87;0.30;;;6.90;99.90;;;;;;5092495;28;20038;-71
2023/01/15 09:01:36;;;;;;;2.33;0.70;;;6.90;99.90;;;;;;5093009;28;20115;-71
2023/01/15 09:04:02;;;;;;;1.43;0.60;;;6.90;99.90;;;;;;5092097;28;20036;-72
2023/01/15 09:06:28;;;;;;;0.30;0.28;;;6.90;99.90;;;;;;5092227;28;20077;-71
2023/01/15 09:08:53;;;;;;;0.80;0.30;;;6.80;99.90;;;;;;5091982;28;20035;-72
2023/01/15 09:11:19;;;;;;;0.40;0.20;;;6.80;99.90;;;;;;5094143;28;20102;-71
2023/01/15 09:13:47;;;;;;;0.32;0.10;;;6.80;99.90;;;;;;5092029;28;20040;-74
2023/01/15 09:16:12;;;;;;;0.53;0.10;;;6.70;99.90;;;;;;5093095;28;20441;-71
2023/01/15 09:18:38;;;;;;;0.53;0.10;;;6.70;99.90;;;;;;5092191;28;20140;-71
2023/01/15 09:21:05;;;;;;;0.00;0.00;;;6.70;99.90;;;;;;5091852;28;20023;-72
2023/01/15 09:23:31;;;;;;;0.83;0.40;;;6.70;99.90;;;;;;5092600;28;20526;-71
2023/01/15 09:25:59;;;;;;;0.30;0.20;;;6.70;99.90;;;;;;5091699;28;20028;-71
2023/01/15 09:28:27;;;;;;;1.27;0.60;;;6.70;99.90;;;;;;5091936;28;20035;-72
2023/01/15 09:30:53;;;;;;;0.40;0.20;;;6.60;99.90;;;;;;5092093;28;20029;-72
2023/01/15 09:33:18;;;;;;;1.17;0.27;;;6.60;99.90;;;;;;5092327;28;20127;-71
2023/01/15 09:35:44;;;;;;;1.02;0.20;;;6.60;99.90;;;;;;5092208;28;20050;-74
2023/01/15 09:38:11;;;;;;;0.60;0.13;;;6.60;99.90;;;;;;5092129;28;20036;-71
2023/01/15 09:40:58;;;;;;;1.20;0.30;;;6.60;99.90;;;;;;5092530;28;20024;-72
2023/01/15 09:43:33;;;;;;;3.13;1.07;;;6.60;99.90;;;;;;5093035;28;20047;-72
2023/01/15 09:46:10;;;;;;;0.80;0.10;;;6.50;99.90;;;;;;5092761;28;20035;-71
2023/01/15 09:48:44;;;;;;;0.83;0.20;;;6.50;99.90;;;;;;5092130;28;20027;-71
2023/01/15 09:51:21;;;;;;;1.17;0.20;;;6.50;99.90;;;;;;5093340;28;20038;-71
2023/01/15 09:54:04;;;;;;;0.30;0.10;;;6.50;99.90;;;;;;5091005;28;20144;-74
2023/01/15 09:56:32;;;;;;;0.77;0.13;;;6.50;99.90;;;;;;5093211;28;20099;-71
2023/01/15 09:59:00;;;;;;;2.23;0.30;;;6.40;99.90;;;;;;5091125;28;20028;-71
2023/01/15 10:01:31;;;;;;;0.70;0.20;;;6.40;99.90;;;;;;5091937;28;20034;-71
2023/01/15 10:04:06;;;;;;;0.52;0.30;;;6.40;99.90;;;;;;5091199;28;20032;-71
2023/01/15 10:06:44;;;;;;;0.47;0.10;;;6.40;99.90;;;;;;5091794;28;20536;-71
2023/01/15 10:09:14;;;;;;;0.57;0.30;;;6.40;99.90;;;;;;5092513;28;20024;-71
2023/01/15 10:14:38;;;;;;;2.60;0.60;;;6.40;99.90;;;;;;5093018;28;20097;-71
2023/01/15 10:17:13;;;;;;;0.97;0.30;;;6.30;99.90;;;;;;5092473;28;20778;-71
2023/01/15 10:19:39;;;;;;;0.30;0.30;;;6.30;99.90;;;;;;5113393;28;20022;-71
2023/01/15 10:22:16;;;;;;;1.00;0.20;;;6.40;99.90;;;;;;5094371;28;20077;-71
2023/01/15 10:24:54;;;;;;;0.47;0.13;;;6.40;99.90;;;;;;5113286;28;20027;-71
2023/01/15 10:27:27;;;;;;;0.07;0.03;;;6.30;99.90;;;;;;5094832;28;20039;-71
2023/01/15 10:30:07;;;;;;;0.60;0.20;;;6.40;99.90;;;;;;5093836;28;20031;-71
2023/01/15 10:32:46;;;;;;;0.20;0.13;;;6.30;99.90;;;;;;5112997;28;20039;-71
2023/01/15 10:35:30;;;;;;;0.20;0.10;;;6.30;99.90;;;;;;5090930;28;20039;-71
2023/01/15 10:38:22;;;;;;;0.13;0.10;;;6.30;99.90;;;;;;5085944;28;20073;-71
2023/01/15 10:41:14;;;;;;;0.45;0.20;;;6.30;99.90;;;;;;5073356;28;20032;-74
2023/01/15 10:43:56;;;;;;;1.67;0.20;;;6.30;99.90;;;;;;5094800;28;20045;-71
2023/01/15 10:46:36;;;;;;;0.20;0.10;;;6.30;99.90;;;;;;5112724;28;20035;-71
2023/01/15 10:49:09;;;;;;;0.20;0.10;;;6.30;99.90;;;;;;5073316;28;20035;-72
2023/01/15 10:51:53;;;;;;;0.93;0.17;;;6.30;99.90;;;;;;5084408;28;20457;-71
2023/01/15 10:54:35;;;;;;;0.20;0.10;;;6.20;99.90;;;;;;5094535;28;20114;-71
2023/01/15 10:57:20;;;;;;;0.93;0.10;;;6.20;99.90;;;;;;5073547;28;20035;-72
2023/01/15 10:59:54;;;;;;;1.90;0.30;;;6.10;99.90;;;;;;5085590;28;20369;-73
2023/01/15 11:02:29;;;;;;;1.20;0.13;;;6.10;99.90;;;;;;5094582;28;20389;-71
2023/01/15 11:04:55;;;;;;;0.10;0.10;;;6.10;99.90;;;;;;5073817;28;20032;-71
2023/01/15 11:07:25;;;;;;;0.53;0.17;;;6.10;99.90;;;;;;5112378;28;20527;-72
2023/01/15 11:09:51;;;;;;;1.97;0.50;;;6.10;99.90;;;;;;5093302;28;20020;-72
2023/01/15 11:20:45;;;;;;;2.10;0.20;;;6.00;99.90;;;;;;5080263;28;20028;-71
2023/01/15 11:23:14;;;;;;;0.50;0.10;;;6.00;99.90;;;;;;5093350;28;20118;-71
2023/01/15 11:25:52;;;;;;;3.03;0.20;;;5.90;99.90;;;;;;5111971;28;20392;-71
2023/01/15 11:28:17;;;;;;;0.90;0.10;;;5.90;99.90;;;;;;5093922;28;20031;-72
2023/01/15 11:30:53;;;;;;;3.73;0.20;;;5.80;99.90;;;;;;5094011;28;20019;-72
2023/01/15 11:33:25;;;;;;;0.00;0.00;;;5.80;99.90;;;;;;5093860;28;20039;-72
2023/01/15 11:35:59;;;;;;;2.07;0.20;;;5.80;99.90;;;;;;5084540;28;20089;-74
2023/01/15 11:38:30;;;;;;;0.20;0.10;;;5.80;99.90;;;;;;5108981;28;20027;-72
2023/01/15 11:41:00;;;;;;;1.17;0.10;;;5.80;99.90;;;;;;5093045;28;20028;-71
2023/01/15 11:52:16;;;;;;;2.30;0.40;;;5.80;99.90;;;;;;5115528;28;20390;-71
2023/01/15 11:54:45;;;;;;;1.50;0.30;;;5.80;99.90;;;;;;5097803;28;20111;-71
2023/01/15 11:57:11;;;;;;;2.53;0.80;;;5.90;99.90;;;;;;5096759;28;20123;-71
2023/01/15 11:59:37;;;;;;;3.60;0.70;;;5.90;99.90;;;;;;5097420;28;20088;-71
2023/01/15 12:02:17;;;;;;;2.37;0.67;;;6.00;99.90;;;;;;5115160;28;20023;-71
2023/01/15 12:04:55;;;;;;;2.97;0.30;;;6.00;99.90;;;;;;5115950;28;20153;-71
2023/01/15 12:07:23;;;;;;;1.87;0.30;;;6.10;99.90;;;;;;5103299;28;20030;-71
2023/01/15 12:10:12;;;;;;;1.00;0.30;;;6.10;99.90;;;;;;5097522;28;20030;-74
2023/01/15 12:13:05;;;;;;;1.13;0.23;;;6.20;99.90;;;;;;5096753;28;20374;-71
2023/01/15 12:15:40;;;;;;;0.83;0.23;;;6.20;99.90;;;;;;5115971;28;20035;-72
2023/01/15 12:18:21;;;;;;;1.57;0.37;;;6.30;99.90;;;;;;5095790;28;20051;-71
2023/01/15 12:20:52;;;;;;;2.97;0.50;;;6.30;99.90;;;;;;5097277;28;20451;-71
2023/01/15 12:23:36;;;;;;;2.38;0.55;;;6.20;99.90;;;;;;5097026;28;20465;-71
2023/01/15 12:26:23;;;;;;;1.30;0.60;;;6.30;99.90;;;;;;5114571;28;20036;-72
2023/01/15 12:29:17;;;;;;;2.87;0.70;;;6.20;99.90;;;;;;5080792;28;20170;-73
2023/01/15 12:31:49;;;;;;;2.27;0.37;;;6.20;99.90;;;;;;5097250;28;20023;-71
2023/01/15 12:34:44;;;;;;;2.67;0.57;;;6.20;99.90;;;;;;5114834;28;20030;-72
2023/01/15 12:37:19;;;;;;;2.20;0.40;;;6.30;99.90;;;;;;5082168;28;20118;-72
2023/01/15 12:40:13;;;;;;;4.13;0.60;;;6.50;99.90;;;;;;5096905;28;20465;-72
2023/01/15 12:45:30;;;;;;;1.00;0.30;;;7.10;99.90;;;;;;5115271;28;20039;-72
2023/01/15 12:48:12;;;;;;;1.03;0.40;;;7.40;99.90;;;;;;5095843;28;20027;-72
2023/01/15 12:50:50;;;;;;;3.27;0.37;;;7.40;99.90;;;;;;5096984;28;20035;-71
2023/01/15 12:53:36;;;;;;;2.30;0.33;;;7.30;99.90;;;;;;5114171;28;20053;-71
2023/01/15 12:56:43;;;;;;;1.20;0.50;;;7.50;99.90;;;;;;5096060;28;20035;-72
2023/01/15 12:59:24;;;;;;;0.80;0.33;;;7.50;99.90;;;;;;5099728;28;20028;-72
2023/01/15 13:02:20;;;;;;;2.23;0.30;;;7.70;99.90;;;;;;5096510;28;20472;-73
2023/01/15 13:04:56;;;;;;;2.77;0.50;;;7.60;99.90;;;;;;5096630;28;20015;-72
2023/01/15 13:07:52;;;;;;;4.15;0.57;;;7.70;99.90;;;;;;5102664;28;20104;-72
2023/01/15 13:10:24;;;;;;;5.23;0.53;;;7.60;99.90;;;;;;5096282;28;20031;-72
2023/01/15 13:12:52;;;;;;;4.20;0.60;;;7.70;99.90;;;;;;5080027;28;20039;-72
2023/01/15 13:15:20;;;;;;;1.85;0.50;;;8.00;99.90;;;;;;5095808;28;20160;-72
2023/01/15 13:17:59;;;;;;;1.17;0.30;;;8.10;99.90;;;;;;5113781;28;20047;-72
2023/01/15 13:20:46;;;;;;;2.65;0.43;;;8.20;99.90;;;;;;5114532;28;20031;-72
2023/01/15 13:23:36;;;;;;;0.55;0.20;;;8.40;99.90;;;;;;5095265;28;20031;-72
2023/01/15 13:26:11;;;;;;;0.90;0.30;;;8.40;99.90;;;;;;5095284;28;20129;-72
2023/01/15 13:29:11;;;;;;;1.65;0.40;;;8.40;99.90;;;;;;5095230;28;20020;-72
2023/01/15 13:32:05;;;;;;;1.42;0.40;;;8.40;99.90;;;;;;5096024;28;20032;-72
2023/01/15 13:34:55;;;;;;;1.73;0.20;;;8.30;99.90;;;;;;5114138;28;20073;-72
2023/01/15 13:37:39;;;;;;;0.50;0.20;;;8.50;99.90;;;;;;5083682;28;20077;-72
2023/01/15 13:40:24;;;;;;;0.28;0.10;;;8.30;99.90;;;;;;5095163;28;20030;-72
2023/01/15 13:42:51;;;;;;;0.90;0.20;;;8.20;99.90;;;;;;5097570;28;20052;-72
2023/01/15 13:45:25;;;;;;;0.65;0.30;;;8.70;99.90;;;;;;5113125;28;20027;-72
2023/01/15 13:47:54;;;;;;;1.85;0.38;;;9.00;99.90;;;;;;5095408;28;20110;-72
2023/01/15 13:50:33;;;;;;;0.82;0.20;;;9.10;99.90;;;;;;5095245;28;20035;-72
2023/01/15 13:53:13;;;;;;;1.00;0.30;;;9.20;99.90;;;;;;5097994;28;20019;-73
2023/01/15 13:55:48;;;;;;;2.38;0.30;;;9.30;99.90;;;;;;5113937;28;20085;-72
2023/01/15 13:58:29;;;;;;;1.38;0.30;;;8.80;99.90;;;;;;5112231;28;20019;-72
2023/01/15 14:01:01;;;;;;;0.60;0.30;;;8.40;99.90;;;;;;5094866;28;20039;-75
2023/01/15 14:03:37;;;;;;;1.02;0.20;;;8.10;99.90;;;;;;5113487;28;20108;-72